Time;durP1;ratioP1;P1;durP2;ratioP2;P2;SDS_P1;SDS_P2;PMS_P1;PMS_P2;Temp;Humidity;BMP_temperature;BMP_pressure;BME280_temperature;BME280_humidity;BME280_pressure;Samples;Min_cycle;Max_cycle;Signal;HPM_P1;HPM_P2
2023/09/12 00:00:43;;;;;;;8.68;4.38;;;;;;;20.91;64.42;98597.88;5048117;28;20049;-95
2023/09/12 00:03:09;;;;;;;7.43;4.43;;;;;;;21.16;64.54;98628.53;5048227;28;20361;-95
2023/09/12 00:05:36;;;;;;;7.43;4.80;;;;;;;20.71;64.63;98569.59;5047271;28;20407;-94
2023/09/12 00:08:03;;;;;;;8.27;4.80;;;;;;;20.69;64.40;98556.19;5046986;28;20051;-95
2023/09/12 00:10:29;;;;;;;7.03;4.15;;;;;;;20.76;64.98;98583.63;5050987;28;20040;-95
2023/09/12 00:12:58;;;;;;;7.70;4.35;;;;;;;20.88;64.11;98571.94;5048284;28;20072;-96
2023/09/12 00:15:24;;;;;;;6.85;3.92;;;;;;;21.17;64.31;98608.63;5043243;28;20073;-94
2023/09/12 00:17:50;;;;;;;6.90;4.05;;;;;;;21.17;64.56;98616.75;5041281;28;20057;-94
2023/09/12 00:20:16;;;;;;;6.07;4.07;;;;;;;21.24;64.49;98626.13;5059058;28;20041;-94
2023/09/12 00:22:42;;;;;;;9.00;4.88;;;;;;;21.04;64.80;98579.78;5057397;28;20159;-95
2023/09/12 00:25:08;;;;;;;5.85;3.88;;;;;;;20.86;64.98;98579.28;5041459;28;20090;-94
2023/09/12 00:27:34;;;;;;;7.57;3.90;;;;;;;20.80;66.16;98604.06;5041129;28;20049;-94
2023/09/12 00:30:02;;;;;;;7.85;4.53;;;;;;;20.95;66.03;98634.53;5041885;28;20111;-95
2023/09/12 00:32:28;;;;;;;8.20;4.40;;;;;;;20.76;65.91;98599.84;5058184;28;20042;-94
2023/09/12 00:34:54;;;;;;;6.55;4.63;;;;;;;21.04;66.25;98635.69;5057481;28;20049;-94
2023/09/12 00:37:20;;;;;;;7.05;4.50;;;;;;;20.67;67.73;98608.59;5058998;28;20064;-95
2023/09/12 00:39:47;;;;;;;7.18;4.85;;;;;;;20.44;67.39;98572.38;5058163;28;20052;-96
2023/09/12 00:42:13;;;;;;;9.77;4.95;;;;;;;20.18;67.47;98561.56;5058318;28;20079;-95
2023/09/12 00:44:39;;;;;;;7.65;4.88;;;;;;;20.16;68.44;98570.75;5040684;28;20038;-94
2023/09/12 00:47:06;;;;;;;7.18;4.45;;;;;;;20.41;67.72;98584.25;5057667;28;20037;-95
2023/09/12 00:49:33;;;;;;;7.05;4.57;;;;;;;20.57;67.11;98605.69;5041053;28;20045;-95
2023/09/12 00:52:01;;;;;;;6.75;4.60;;;;;;;20.34;67.27;98563.19;5057562;28;20025;-96
2023/09/12 00:54:27;;;;;;;8.40;4.68;;;;;;;20.39;67.26;98591.59;5058964;28;20145;-95
2023/09/12 00:56:54;;;;;;;9.45;4.95;;;;;;;20.36;68.79;98626.06;5058177;28;20068;-94
2023/09/12 00:59:20;;;;;;;6.82;4.32;;;;;;;19.80;69.82;98548.91;5040586;28;20111;-95
2023/09/12 01:01:47;;;;;;;6.43;4.47;;;;;;;20.45;68.44;98629.00;5042475;28;20042;-95
2023/09/12 01:04:14;;;;;;;8.88;4.55;;;;;;;19.94;69.16;98561.44;5043094;28;20045;-96
2023/09/12 01:06:40;;;;;;;8.27;4.60;;;;;;;20.35;68.38;98602.72;5062367;28;20122;-95
2023/09/12 01:09:07;;;;;;;8.13;4.65;;;;;;;20.05;68.63;98542.66;5045367;28;20061;-96
2023/09/12 01:11:34;;;;;;;7.03;4.32;;;;;;;20.06;68.70;98551.59;5046097;28;20069;-96
2023/09/12 01:14:00;;;;;;;6.72;4.68;;;;;;;19.87;70.53;98552.91;5045826;28;20045;-96
2023/09/12 01:16:26;;;;;;;6.55;4.72;;;;;;;20.02;70.14;98550.97;5045676;28;20076;-95
2023/09/12 01:18:52;;;;;;;7.53;4.90;;;;;;;19.96;71.11;98561.34;5044845;28;20061;-95
2023/09/12 01:21:41;;;;;;;8.00;5.10;;;;;;;19.93;70.42;98557.03;5044847;28;20041;-95
2023/09/12 01:24:43;;;;;;;8.45;5.13;;;;;;;19.95;70.72;98573.06;5045161;28;20053;-94
2023/09/12 01:27:19;;;;;;;7.25;4.85;;;;;;;19.72;71.68;98556.63;5060923;28;20065;-96
2023/09/12 01:29:47;;;;;;;7.88;4.43;;;;;;;19.66;72.70;98552.47;5046007;28;20037;-95
2023/09/12 01:32:14;;;;;;;6.75;4.10;;;;;;;19.57;72.76;98549.56;5043193;28;20048;-95
2023/09/12 01:34:40;;;;;;;6.22;4.43;;;;;;;19.64;72.52;98553.56;5044253;28;20038;-95
2023/09/12 01:37:06;;;;;;;8.18;4.60;;;;;;;19.73;72.48;98561.06;5048966;28;20053;-96
2023/09/12 01:39:32;;;;;;;7.45;4.57;;;;;;;19.48;73.92;98565.38;5044254;28;20057;-95
2023/09/12 01:42:00;;;;;;;7.85;4.97;;;;;;;19.53;73.48;98564.22;5043968;28;20487;-94
2023/09/12 01:44:30;;;;;;;6.32;4.55;;;;;;;19.46;73.43;98564.63;5044249;28;20507;-95
2023/09/12 01:47:00;;;;;;;8.52;5.22;;;;;;;19.83;74.17;98628.75;5043876;28;20573;-94
2023/09/12 01:49:28;;;;;;;7.75;5.07;;;;;;;19.51;74.52;98580.47;5041874;28;20052;-95
2023/09/12 01:51:54;;;;;;;8.43;5.15;;;;;;;19.21;76.09;98559.13;5041536;28;20045;-95
2023/09/12 01:54:22;;;;;;;8.07;5.10;;;;;;;19.27;76.02;98564.09;5041960;28;20045;-96
2023/09/12 01:56:48;;;;;;;7.60;4.40;;;;;;;19.29;76.01;98554.94;5042703;28;20033;-95
2023/09/12 01:59:15;;;;;;;7.03;4.63;;;;;;;19.73;75.51;98639.28;5044459;28;20046;-94
2023/09/12 02:01:43;;;;;;;7.20;4.80;;;;;;;19.32;75.17;98566.50;5043536;28;20044;-94
2023/09/12 02:04:09;;;;;;;8.73;5.00;;;;;;;19.69;76.04;98644.03;5044188;28;20041;-94
2023/09/12 02:06:35;;;;;;;9.65;4.90;;;;;;;19.22;75.23;98569.81;5060905;28;20044;-96
2023/09/12 02:09:01;;;;;;;7.15;4.57;;;;;;;19.16;76.25;98561.25;5060841;28;20046;-95
2023/09/12 02:11:27;;;;;;;9.43;4.63;;;;;;;18.87;77.94;98555.94;5043361;28;20068;-94
2023/09/12 02:13:53;;;;;;;10.35;4.97;;;;;;;19.06;78.23;98602.28;5044984;28;20042;-94
2023/09/12 02:16:19;;;;;;;9.77;5.28;;;;;;;19.10;78.34;98592.16;5043944;28;20529;-93
2023/09/12 02:18:47;;;;;;;8.45;5.65;;;;;;;18.94;78.23;98557.25;5071520;28;20049;-95
2023/09/12 02:21:13;;;;;;;9.57;5.65;;;;;;;19.14;80.21;98620.66;5042041;28;20076;-95
2023/09/12 02:23:39;;;;;;;7.32;5.35;;;;;;;19.11;78.55;98568.78;5039993;28;20499;-95
2023/09/12 02:26:04;;;;;;;8.88;5.60;;;;;;;19.53;77.61;98605.53;5040834;28;20132;-95
2023/09/12 02:28:30;;;;;;;8.77;5.90;;;;;;;19.45;77.70;98618.66;5040857;28;20072;-94
2023/09/12 02:30:56;;;;;;;8.25;5.78;;;;;;;19.09;77.99;98541.94;5040625;28;20140;-96
2023/09/12 02:33:22;;;;;;;9.35;5.40;;;;;;;19.16;78.54;98556.72;5039151;28;20116;-95
2023/09/12 02:35:49;;;;;;;7.88;5.45;;;;;;;19.18;77.80;98556.63;5039410;28;20049;-95
2023/09/12 02:38:18;;;;;;;7.72;4.72;;;;;;;19.50;77.38;98603.03;5039400;28;20038;-95
2023/09/12 02:40:44;;;;;;;7.60;5.43;;;;;;;19.24;77.31;98553.53;5039833;28;20041;-96
2023/09/12 02:43:09;;;;;;;8.40;5.30;;;;;;;19.57;76.63;98595.41;5038548;28;20073;-94
2023/09/12 02:45:35;;;;;;;8.95;5.38;;;;;;;19.85;76.09;98638.47;5052028;28;20144;-95
2023/09/12 02:48:01;;;;;;;7.93;4.90;;;;;;;19.47;76.47;98571.75;5034977;28;20514;-95
2023/09/12 02:50:27;;;;;;;8.10;5.32;;;;;;;19.69;76.96;98629.63;5034941;28;20080;-95
2023/09/12 02:52:54;;;;;;;7.63;5.55;;;;;;;19.64;77.04;98631.78;5034828;28;20507;-95
2023/09/12 02:55:21;;;;;;;8.18;5.50;;;;;;;19.51;77.42;98612.84;5034768;28;20507;-94
2023/09/12 02:57:46;;;;;;;9.15;5.70;;;;;;;19.39;78.99;98628.03;5035306;28;20144;-95
2023/09/12 03:00:13;;;;;;;10.02;5.03;;;;;;;19.25;78.23;98615.41;5035187;28;20069;-96
2023/09/12 03:02:39;;;;;;;9.68;5.53;;;;;;;19.09;79.19;98612.88;5068700;28;20570;-96
2023/09/12 03:05:05;;;;;;;7.70;5.30;;;;;;;19.12;80.35;98637.88;5035047;28;20072;-95
2023/09/12 03:07:31;;;;;;;8.27;5.03;;;;;;;19.25;79.44;98628.91;5035148;28;20052;-94
2023/09/12 03:09:59;;;;;;;8.80;5.47;;;;;;;19.25;78.87;98609.16;5034896;28;20049;-95
2023/09/12 03:12:24;;;;;;;7.93;5.05;;;;;;;19.09;78.52;98587.75;5034966;28;20088;-94
2023/09/12 03:14:50;;;;;;;7.97;5.63;;;;;;;19.06;79.50;98583.44;5034495;28;20045;-96
2023/09/12 03:17:16;;;;;;;9.63;6.10;;;;;;;19.37;78.72;98621.00;5036274;28;20030;-95
2023/09/12 03:19:42;;;;;;;9.07;5.38;;;;;;;19.06;78.51;98569.06;5038079;28;20072;-94
2023/09/12 03:22:08;;;;;;;10.77;5.28;;;;;;;19.32;78.84;98621.28;5038396;28;20041;-95
2023/09/12 03:24:34;;;;;;;6.90;5.13;;;;;;;18.84;79.72;98566.91;5041657;28;20079;-95
2023/09/12 03:27:01;;;;;;;8.90;5.50;;;;;;;18.94;80.37;98594.13;5042039;28;20041;-95
2023/09/12 03:29:27;;;;;;;9.25;6.00;;;;;;;19.08;81.20;98638.09;5041976;28;20394;-94
2023/09/12 03:31:53;;;;;;;11.68;5.38;;;;;;;18.85;79.50;98580.28;5041620;28;20098;-95
2023/09/12 03:34:19;;;;;;;10.38;5.40;;;;;;;18.77;79.92;98577.16;5041866;28;20180;-96
2023/09/12 03:36:45;;;;;;;7.95;5.85;;;;;;;18.79;80.59;98583.34;5041887;28;20506;-94
2023/09/12 03:39:13;;;;;;;10.05;6.07;;;;;;;18.96;80.92;98628.09;5041437;28;20041;-95
2023/09/12 03:41:38;;;;;;;8.60;6.07;;;;;;;18.48;82.53;98570.94;5041694;28;20041;-94
2023/09/12 03:44:06;;;;;;;9.32;5.50;;;;;;;18.83;82.13;98635.22;5045954;28;20120;-94
2023/09/12 03:46:32;;;;;;;13.20;6.25;;;;;;;18.58;82.44;98612.47;5058381;28;20383;-94
2023/09/12 03:48:58;;;;;;;10.73;6.32;;;;;;;18.41;84.19;98624.31;5058111;28;20112;-92
2023/09/12 03:51:24;;;;;;;9.30;6.15;;;;;;;18.29;85.47;98624.19;5041746;28;20069;-95
2023/09/12 03:53:51;;;;;;;8.65;5.90;;;;;;;18.03;86.14;98580.88;5042087;28;20037;-93
2023/09/12 03:56:19;;;;;;;9.93;5.80;;;;;;;18.47;85.06;98639.19;5041388;28;20025;-94
2023/09/12 03:58:45;;;;;;;9.15;5.72;;;;;;;18.37;84.36;98611.13;5041713;28;20021;-94
2023/09/12 04:01:12;;;;;;;10.00;6.35;;;;;;;18.72;84.55;98651.16;5041674;28;20036;-95
2023/09/12 04:03:38;;;;;;;9.07;6.45;;;;;;;18.16;85.24;98579.16;5040759;28;20061;-95
2023/09/12 04:06:04;;;;;;;7.97;5.75;;;;;;;18.34;85.11;98604.09;5074317;28;20056;-94
2023/09/12 04:08:32;;;;;;;12.93;6.80;;;;;;;18.58;85.08;98642.09;5041288;28;20045;-94
2023/09/12 04:10:58;;;;;;;14.50;7.05;;;;;;;18.14;86.73;98591.84;5041527;28;20139;-96
2023/09/12 04:13:23;;;;;;;12.50;7.68;;;;;;;17.90;87.39;98583.44;5041276;28;20451;-94
2023/09/12 04:15:49;;;;;;;11.77;6.72;;;;;;;17.98;88.34;98616.13;5040931;28;20055;-93
2023/09/12 04:18:17;;;;;;;14.10;8.40;;;;;;;18.23;88.72;98634.34;5040679;28;20444;-95
2023/09/12 04:20:42;;;;;;;12.85;7.43;;;;;;;18.14;88.45;98647.50;5074125;28;20045;-95
2023/09/12 04:23:08;;;;;;;11.18;7.22;;;;;;;18.29;87.31;98651.09;5041444;28;20118;-94
2023/09/12 04:25:34;;;;;;;12.60;7.25;;;;;;;18.43;87.00;98669.97;5040840;28;20414;-94
2023/09/12 04:28:00;;;;;;;12.20;7.13;;;;;;;18.01;87.05;98605.19;5040908;28;20115;-96
2023/09/12 04:30:26;;;;;;;12.02;6.55;;;;;;;18.26;87.06;98653.03;5042260;28;20478;-95
2023/09/12 04:32:52;;;;;;;11.32;7.82;;;;;;;18.21;87.72;98657.78;5040736;28;20473;-94
2023/09/12 04:35:20;;;;;;;9.05;6.32;;;;;;;18.27;87.43;98660.13;5041399;28;20094;-95
2023/09/12 04:37:46;;;;;;;12.48;5.90;;;;;;;18.25;86.54;98648.59;5040887;28;20059;-94
2023/09/12 04:40:12;;;;;;;14.32;7.30;;;;;;;18.26;86.33;98644.09;5040559;28;20383;-95
2023/09/12 04:42:38;;;;;;;9.15;6.30;;;;;;;18.02;86.79;98612.31;5075064;28;20067;-94
2023/09/12 04:45:05;;;;;;;10.63;6.22;;;;;;;18.00;86.85;98605.25;5050141;28;20529;-95
2023/09/12 04:47:32;;;;;;;10.45;6.10;;;;;;;17.90;87.17;98609.47;5049612;28;20147;-94
2023/09/12 04:49:58;;;;;;;9.82;6.35;;;;;;;17.78;88.32;98614.59;5049192;28;20044;-94
2023/09/12 04:52:25;;;;;;;8.27;6.03;;;;;;;17.66;88.38;98599.19;5049016;28;20048;-95
2023/09/12 04:54:51;;;;;;;11.43;6.00;;;;;;;17.68;89.19;98615.25;5048699;28;20047;-95
2023/09/12 04:57:17;;;;;;;9.60;6.68;;;;;;;17.82;88.01;98618.00;5046474;28;20045;-95
2023/09/12 04:59:43;;;;;;;10.95;6.28;;;;;;;18.19;89.22;98666.94;5048743;28;20135;-95
2023/09/12 05:02:09;;;;;;;9.57;6.05;;;;;;;17.82;88.30;98607.22;5047900;28;20068;-94
2023/09/12 05:04:35;;;;;;;12.50;6.47;;;;;;;17.84;88.73;98611.56;5044272;28;20490;-95
2023/09/12 05:07:01;;;;;;;11.50;6.47;;;;;;;17.86;88.58;98625.78;5045180;28;20140;-95
2023/09/12 05:09:28;;;;;;;10.52;6.75;;;;;;;18.26;88.64;98681.78;5043102;28;20041;-95
2023/09/12 05:11:54;;;;;;;9.60;6.13;;;;;;;18.05;89.26;98665.94;5045195;28;20064;-95
2023/09/12 05:14:20;;;;;;;9.15;6.32;;;;;;;18.09;89.68;98669.31;5045540;28;20079;-96
2023/09/12 05:16:46;;;;;;;11.45;7.03;;;;;;;18.10;90.70;98680.94;5047046;28;20041;-95
2023/09/12 05:19:12;;;;;;;10.80;6.97;;;;;;;17.90;89.57;98626.47;5044709;28;20045;-95
2023/09/12 05:21:38;;;;;;;9.88;6.40;;;;;;;17.94;89.65;98619.97;5046188;28;20047;-96
2023/09/12 05:24:05;;;;;;;10.10;6.25;;;;;;;18.17;89.07;98642.81;5050127;28;20049;-95
2023/09/12 05:26:33;;;;;;;10.80;6.75;;;;;;;18.12;88.99;98627.91;5051250;28;20041;-95
2023/09/12 05:28:59;;;;;;;10.02;6.68;;;;;;;18.31;88.88;98655.44;5048727;28;20044;-94
2023/09/12 05:31:25;;;;;;;9.15;6.57;;;;;;;18.17;89.12;98618.59;5051663;28;20075;-95
2023/09/12 05:33:52;;;;;;;10.73;6.82;;;;;;;18.15;88.51;98627.69;5052762;28;20502;-96
2023/09/12 05:36:18;;;;;;;9.85;6.70;;;;;;;18.25;88.34;98635.13;5053970;28;20113;-95
2023/09/12 05:38:44;;;;;;;11.77;6.63;;;;;;;18.29;89.04;98635.81;5053461;28;20052;-95
2023/09/12 05:41:11;;;;;;;11.35;6.88;;;;;;;18.33;88.52;98639.19;5051898;28;20049;-95
2023/09/12 05:43:38;;;;;;;11.65;6.95;;;;;;;18.34;88.61;98632.84;5050498;28;20143;-96
2023/09/12 05:46:05;;;;;;;12.75;7.00;;;;;;;18.60;87.64;98647.38;5050139;28;20063;-95
2023/09/12 05:48:31;;;;;;;14.50;7.05;;;;;;;18.68;86.71;98634.31;5050436;28;20045;-93
2023/09/12 05:50:57;;;;;;;13.18;7.22;;;;;;;18.94;84.78;98642.63;5048960;28;20098;-95
2023/09/12 05:53:23;;;;;;;10.95;6.82;;;;;;;19.27;84.81;98694.38;5049548;28;20056;-95
2023/09/12 05:55:50;;;;;;;12.32;7.50;;;;;;;18.92;84.37;98631.09;5051700;28;20450;-95
2023/09/12 05:58:16;;;;;;;9.85;6.80;;;;;;;19.09;84.08;98634.44;5050512;28;20025;-95
2023/09/12 06:00:44;;;;;;;10.90;7.18;;;;;;;19.35;82.72;98652.59;5049230;28;20045;-95
2023/09/12 06:03:12;;;;;;;11.93;7.35;;;;;;;19.36;82.00;98633.59;5050123;28;20112;-96
2023/09/12 06:05:38;;;;;;;11.82;8.80;;;;;;;19.44;82.26;98631.28;5050511;28;20049;-96
2023/09/12 06:08:05;;;;;;;14.43;7.07;;;;;;;19.60;82.00;98657.22;5046476;28;20053;-95
2023/09/12 06:10:31;;;;;;;10.13;7.18;;;;;;;19.91;81.20;98685.78;5047910;28;20049;-96
2023/09/12 06:12:57;;;;;;;13.32;7.72;;;;;;;19.80;79.95;98637.94;5048630;28;20182;-95
2023/09/12 06:15:24;;;;;;;11.02;6.70;;;;;;;20.02;79.03;98661.63;5046194;28;20045;-94
2023/09/12 06:17:51;;;;;;;12.15;7.55;;;;;;;20.02;78.19;98637.34;5047938;28;20153;-95
2023/09/12 06:20:19;;;;;;;11.60;7.45;;;;;;;20.15;78.22;98633.81;5049510;28;20052;-96
2023/09/12 06:22:45;;;;;;;14.95;8.07;;;;;;;20.26;76.77;98640.19;5044733;28;20207;-95
2023/09/12 06:25:11;;;;;;;13.88;7.70;;;;;;;20.82;76.27;98701.22;5049044;28;20078;-95
2023/09/12 06:27:36;;;;;;;11.20;7.50;;;;;;;20.81;75.36;98675.19;5039756;28;20048;-94
2023/09/12 06:30:03;;;;;;;12.15;7.53;;;;;;;21.01;74.72;98673.75;5037927;28;20052;-93
2023/09/12 06:32:29;;;;;;;10.13;7.00;;;;;;;21.08;74.49;98683.19;5045785;28;20123;-95
2023/09/12 06:34:56;;;;;;;12.93;7.03;;;;;;;21.24;73.47;98691.91;5037740;28;20498;-94
2023/09/12 06:37:22;;;;;;;11.35;7.35;;;;;;;21.16;73.61;98690.72;5037933;28;20052;-94
2023/09/12 06:39:50;;;;;;;12.80;7.13;;;;;;;21.39;73.60;98710.72;5037595;28;20033;-96
2023/09/12 06:42:16;;;;;;;11.63;7.35;;;;;;;21.27;73.10;98675.44;5037703;28;20037;-94
2023/09/12 06:44:42;;;;;;;10.40;6.57;;;;;;;21.61;72.62;98710.88;5037428;28;20064;-95
2023/09/12 06:47:09;;;;;;;12.00;7.20;;;;;;;21.66;71.84;98692.47;5036581;28;20053;-93
2023/09/12 06:49:36;;;;;;;9.55;5.95;;;;;;;21.95;70.45;98708.41;5034429;28;20502;-94
2023/09/12 06:52:03;;;;;;;12.25;6.47;;;;;;;22.09;69.27;98700.09;5037148;28;20044;-94
2023/09/12 06:54:29;;;;;;;11.05;7.03;;;;;;;22.26;68.72;98689.88;5037449;28;20036;-94
2023/09/12 06:56:55;;;;;;;11.77;6.80;;;;;;;22.54;67.05;98716.56;5040406;28;20056;-94
2023/09/12 06:59:21;;;;;;;9.90;6.85;;;;;;;22.44;67.24;98699.28;5042924;28;20041;-96
2023/09/12 07:01:47;;;;;;;11.48;7.13;;;;;;;22.52;67.05;98723.09;5042302;28;20133;-95
2023/09/12 07:04:13;;;;;;;11.57;8.30;;;;;;;22.02;68.33;98706.09;5041580;28;20056;-95
2023/09/12 07:06:39;;;;;;;12.32;7.10;;;;;;;22.36;67.92;98712.56;5041186;28;20438;-92
2023/09/12 07:09:08;;;;;;;12.07;7.40;;;;;;;22.68;66.86;98734.44;5041433;28;20044;-96
2023/09/12 07:11:33;;;;;;;;;;;;;;;21.95;68.63;98749.03;5043429;28;20090;-95
2023/09/12 07:13:59;;;;;;;12.95;6.70;;;;;;;22.12;68.51;98723.38;5043869;28;20328;-96
2023/09/12 07:16:25;;;;;;;9.50;6.43;;;;;;;22.12;67.16;98694.47;5044714;28;20045;-96
2023/09/12 07:18:52;;;;;;;13.98;7.22;;;;;;;22.29;66.36;98727.53;5042690;28;20064;-96
2023/09/12 07:21:18;;;;;;;12.40;7.60;;;;;;;22.34;66.46;98698.28;5045666;28;20032;-96
2023/09/12 07:23:44;;;;;;;8.90;6.55;;;;;;;22.69;65.53;98705.53;5046898;28;20053;-96
2023/09/12 07:26:14;;;;;;;14.60;7.43;;;;;;;23.20;63.76;98744.94;5043574;28;20052;-94
2023/09/12 07:28:41;;;;;;;8.20;6.18;;;;;;;23.41;62.89;98755.94;5043616;28;20052;-96
2023/09/12 07:31:07;;;;;;;9.93;6.82;;;;;;;23.68;61.34;98755.56;5047469;28;20041;-96
2023/09/12 07:33:33;;;;;;;16.02;7.63;;;;;;;23.75;60.87;98751.38;5045191;28;20053;-96
2023/09/12 07:36:00;;;;;;;10.70;6.78;;;;;;;23.73;60.30;98709.91;5045709;28;20049;-96
2023/09/12 07:38:26;;;;;;;11.13;6.28;;;;;;;23.92;60.23;98726.44;5045103;28;20042;-96
2023/09/12 07:40:52;;;;;;;9.32;6.38;;;;;;;23.77;58.98;98703.25;5044160;28;20065;-96
2023/09/12 07:43:21;;;;;;;9.70;6.55;;;;;;;24.17;59.69;98770.56;5045427;28;20054;-96
2023/09/12 07:45:49;;;;;;;8.68;5.80;;;;;;;24.29;59.28;98752.34;5047234;28;20073;-96
2023/09/12 07:48:15;;;;;;;9.52;6.32;;;;;;;24.17;57.81;98692.63;5046688;28;20041;-94
2023/09/12 07:50:42;;;;;;;12.52;6.47;;;;;;;24.40;57.92;98717.88;5046250;28;20050;-96
2023/09/12 07:53:08;;;;;;;8.02;5.68;;;;;;;24.65;57.47;98783.75;5043639;28;20049;-95
2023/09/12 07:55:44;;;;;;;12.60;6.28;;;;;;;24.45;56.65;98722.91;5043612;28;20049;-96
2023/09/12 07:58:10;;;;;;;10.57;7.97;;;;;;;24.68;57.52;98767.22;5045092;28;20395;-96
2023/09/12 08:00:38;;;;;;;12.50;6.22;;;;;;;24.68;57.13;98712.81;5044097;28;20128;-96
2023/09/12 08:03:04;;;;;;;9.45;5.93;;;;;;;24.80;55.64;98711.75;5042688;28;20041;-96
2023/09/12 08:05:31;;;;;;;8.63;6.03;;;;;;;24.92;54.62;98711.69;5044784;28;20050;-96
2023/09/12 08:07:57;;;;;;;13.43;6.45;;;;;;;24.82;55.02;98740.69;5041855;28;20041;-96
2023/09/12 08:10:23;;;;;;;10.15;5.75;;;;;;;24.94;54.34;98723.28;5039429;28;20053;-96
2023/09/12 08:12:49;;;;;;;10.68;6.22;;;;;;;25.46;53.13;98784.06;5038770;28;20042;-96
2023/09/12 08:15:15;;;;;;;8.55;5.82;;;;;;;25.52;53.57;98729.03;5039698;28;20045;-96
2023/09/12 08:17:42;;;;;;;10.15;6.28;;;;;;;25.90;52.90;98753.88;5039663;28;20052;-94
2023/09/12 08:20:09;;;;;;;11.25;6.10;;;;;;;25.99;51.43;98770.25;5041591;28;20037;-96
2023/09/12 08:22:35;;;;;;;8.57;5.93;;;;;;;25.82;51.26;98709.06;5041529;28;20069;-96
2023/09/12 08:25:01;;;;;;;8.23;5.40;;;;;;;26.09;51.98;98747.59;5059520;28;20049;-96
2023/09/12 08:27:28;;;;;;;12.95;5.88;;;;;;;25.83;50.65;98731.75;5047170;28;20072;-96
2023/09/12 08:29:54;;;;;;;10.98;5.63;;;;;;;26.03;51.33;98736.25;5045481;28;20053;-96
2023/09/12 08:32:20;;;;;;;9.25;5.57;;;;;;;25.73;51.68;98709.91;5044627;28;20037;-96
2023/09/12 08:34:51;;;;;;;8.77;5.93;;;;;;;26.16;51.58;98763.25;5044103;28;20051;-96
2023/09/12 08:37:17;;;;;;;10.75;6.10;;;;;;;26.10;51.84;98732.97;5042996;28;20045;-96
2023/09/12 08:39:45;;;;;;;9.00;5.88;;;;;;;26.21;50.00;98735.56;5044108;28;20049;-96
2023/09/12 08:42:13;;;;;;;12.43;5.95;;;;;;;26.41;49.51;98739.16;5061303;28;20109;-95
2023/09/12 08:44:39;;;;;;;7.93;5.32;;;;;;;26.52;48.97;98728.09;5061760;28;20053;-96
2023/09/12 08:47:08;;;;;;;10.10;6.70;;;;;;;26.70;48.69;98736.47;5059960;28;20099;-95
2023/09/12 08:49:35;;;;;;;9.80;6.07;;;;;;;26.78;49.91;98720.25;5059143;28;20045;-95
2023/09/12 08:52:03;;;;;;;11.40;5.45;;;;;;;26.75;48.38;98725.13;5060134;28;20048;-95
2023/09/12 08:54:29;;;;;;;12.00;6.15;;;;;;;26.54;48.13;98763.44;5060291;28;20045;-96
2023/09/12 08:56:56;;;;;;;11.55;5.82;;;;;;;26.84;47.79;98746.94;5043358;28;20136;-96
2023/09/12 08:59:23;;;;;;;10.80;5.50;;;;;;;27.07;48.23;98730.25;5060638;28;20045;-96
2023/09/12 09:01:52;;;;;;;7.28;4.88;;;;;;;27.17;46.72;98722.00;5063211;28;20038;-96
2023/09/12 09:04:20;;;;;;;10.63;5.43;;;;;;;26.98;46.74;98777.53;5061939;28;20203;-96
2023/09/12 09:06:47;;;;;;;10.52;5.63;;;;;;;26.55;46.79;98722.38;5044825;28;20041;-96
2023/09/12 09:09:16;;;;;;;7.28;5.47;;;;;;;26.44;47.67;98782.53;5047173;28;20052;-96
2023/09/12 09:11:42;;;;;;;7.10;5.28;;;;;;;26.75;46.85;98717.78;5063076;28;20099;-96
2023/09/12 09:14:08;;;;;;;7.68;5.28;;;;;;;27.09;45.51;98720.03;5063041;28;20037;-95
2023/09/12 09:16:35;;;;;;;9.77;5.13;;;;;;;26.92;44.19;98724.38;5049368;28;20113;-96
2023/09/12 09:19:05;;;;;;;7.10;4.68;;;;;;;27.72;44.28;98762.25;5064892;28;20049;-96
2023/09/12 09:21:32;;;;;;;8.70;5.20;;;;;;;27.10;43.60;98734.53;5064135;28;20041;-95
2023/09/12 09:24:01;;;;;;;9.35;5.68;;;;;;;27.10;44.66;98735.41;5044028;28;20045;-96
2023/09/12 09:26:41;;;;;;;9.25;5.45;;;;;;;27.47;44.62;98729.13;5061926;28;20103;-96
2023/09/12 09:29:10;;;;;;;12.02;5.00;;;;;;;27.63;44.34;98733.97;5044572;28;20080;-96
2023/09/12 09:31:41;;;;;;;13.18;5.55;;;;;;;27.96;42.88;98743.44;5044459;28;20037;-96
2023/09/12 09:34:11;;;;;;;17.60;5.55;;;;;;;27.92;43.73;98728.38;5061167;28;20037;-95
2023/09/12 09:36:42;;;;;;;11.57;5.35;;;;;;;28.14;42.70;98727.06;5061442;28;20045;-96
2023/09/12 09:39:08;;;;;;;15.02;5.40;;;;;;;28.50;42.09;98759.97;5062242;28;20065;-96
2023/09/12 09:41:36;;;;;;;12.20;6.10;;;;;;;28.80;41.94;98786.06;5047002;28;20042;-96
2023/09/12 09:44:04;;;;;;;12.40;5.18;;;;;;;28.86;41.48;98752.59;5043262;28;20136;-96
2023/09/12 09:46:30;;;;;;;12.93;5.47;;;;;;;28.80;40.87;98731.31;5057030;28;20042;-96
2023/09/12 09:48:56;;;;;;;11.60;6.47;;;;;;;28.77;40.77;98774.56;5043747;28;20454;-96
2023/09/12 09:51:21;;;;;;;7.78;5.25;;;;;;;28.52;40.40;98787.13;5036503;28;20076;-94
2023/09/12 09:53:51;;;;;;;10.80;5.47;;;;;;;28.64;39.42;98780.44;5035428;28;20490;-95
2023/09/12 09:56:17;;;;;;;11.38;4.85;;;;;;;28.97;40.18;98789.78;5036285;28;20076;-96
2023/09/12 09:58:48;;;;;;;9.65;4.82;;;;;;;28.57;40.79;98763.78;5036796;28;20045;-95
2023/09/12 10:01:18;;;;;;;10.75;5.88;;;;;;;28.38;40.87;98761.16;5035559;28;20057;-95
2023/09/12 10:03:47;;;;;;;10.52;6.00;;;;;;;28.35;41.20;98765.06;5035677;28;20056;-95
2023/09/12 10:06:15;;;;;;;13.40;5.25;;;;;;;28.55;41.48;98738.44;5035782;28;20167;-95
2023/09/12 10:08:43;;;;;;;14.93;5.45;;;;;;;28.88;40.74;98741.47;5036211;28;20136;-96
2023/09/12 10:11:11;;;;;;;10.90;6.15;;;;;;;29.22;40.14;98770.84;5037679;28;20057;-96
2023/09/12 10:13:41;;;;;;;10.57;5.72;;;;;;;29.18;40.28;98721.00;5039533;28;20050;-95
2023/09/12 10:16:10;;;;;;;10.73;6.43;;;;;;;29.37;39.24;98749.22;5037609;28;20136;-96
2023/09/12 10:18:46;;;;;;;10.32;5.40;;;;;;;29.28;38.47;98721.75;5037296;28;20076;-95
2023/09/12 10:21:15;;;;;;;8.90;5.88;;;;;;;29.10;38.32;98692.72;5039635;28;20415;-95
2023/09/12 10:23:45;;;;;;;8.73;5.57;;;;;;;29.12;38.33;98691.53;5037717;28;20446;-96
2023/09/12 10:26:12;;;;;;;8.05;4.60;;;;;;;29.33;37.18;98688.41;5036632;28;20442;-96
2023/09/12 10:28:40;;;;;;;6.53;4.85;;;;;;;29.35;36.46;98680.88;5041511;28;20060;-96
2023/09/12 10:31:10;;;;;;;7.55;5.22;;;;;;;29.34;37.67;98692.00;5042570;28;20045;-96
2023/09/12 10:33:36;;;;;;;7.70;4.80;;;;;;;29.38;36.55;98702.47;5041402;28;20045;-96
2023/09/12 10:36:04;;;;;;;6.60;4.35;;;;;;;28.61;37.30;98694.06;5042239;28;20056;-96
2023/09/12 10:38:32;;;;;;;7.10;4.82;;;;;;;29.16;35.16;98719.44;5055448;28;20069;-94
2023/09/12 10:41:01;;;;;;;7.30;4.78;;;;;;;29.34;37.26;98727.59;5037833;28;20050;-95
2023/09/12 10:43:28;;;;;;;;;;;;;;;29.47;37.67;98738.97;5053482;28;20037;-94
2023/09/12 10:45:56;;;;;;;6.90;4.60;;;;;;;29.37;37.61;98717.19;5050843;28;19924;-94
2023/09/12 10:48:24;;;;;;;8.18;4.10;;;;;;;29.67;36.63;98726.75;5042412;28;20057;-96
2023/09/12 10:50:50;;;;;;;7.57;5.13;;;;;;;29.60;36.89;98712.00;5044114;28;20124;-96
2023/09/12 10:53:17;;;;;;;9.30;6.30;;;;;;;29.46;36.57;98686.06;5061066;28;20407;-96
2023/09/12 10:55:58;;;;;;;7.97;4.78;;;;;;;29.61;37.39;98702.75;5035966;28;20102;-95
2023/09/12 10:58:24;;;;;;;7.72;4.97;;;;;;;29.61;37.20;98727.41;5035738;28;20041;-95
2023/09/12 11:01:24;;;;;;;7.10;4.50;;;;;;;29.59;37.33;98732.19;5056512;28;20048;-94
2023/09/12 11:03:52;;;;;;;6.15;4.63;;;;;;;29.76;38.10;98707.66;5037762;28;20065;-95
2023/09/12 11:06:22;;;;;;;7.32;4.95;;;;;;;29.63;37.38;98675.19;5034767;28;20504;-95
2023/09/12 11:09:19;;;;;;;7.05;4.70;;;;;;;29.89;37.67;98694.31;5052623;28;20136;-95
2023/09/12 11:11:46;;;;;;;8.30;5.80;;;;;;;29.80;37.85;98709.03;5052497;28;20374;-95
2023/09/12 11:14:13;;;;;;;9.45;4.45;;;;;;;29.36;38.33;98695.44;5035406;28;20045;-94
2023/09/12 11:16:39;;;;;;;5.93;4.80;;;;;;;29.56;37.71;98696.03;5034231;28;20045;-95
2023/09/12 11:19:18;;;;;;;7.55;4.45;;;;;;;29.86;36.24;98703.75;5034617;28;20569;-95
2023/09/12 11:21:45;;;;;;;10.35;4.70;;;;;;;29.97;36.82;98691.63;5037863;28;20065;-95
2023/09/12 11:24:11;;;;;;;5.68;4.32;;;;;;;30.26;35.92;98710.34;5034373;28;20038;-96
2023/09/12 11:26:53;;;;;;;7.93;4.43;;;;;;;30.13;36.49;98695.41;5051615;28;20083;-96
2023/09/12 11:29:20;;;;;;;6.53;4.40;;;;;;;30.01;36.24;98664.69;5037739;28;20117;-96
2023/09/12 11:31:53;;;;;;;7.50;5.15;;;;;;;30.55;35.39;98717.25;5035294;28;20510;-94